Карточка аэропорта UOOO

Внимание!
Информация на этой странице в стадии наполнения.
Если вы не увидели какой-то информации, или заметили неточность - пожалуйста сообщите нам!
Спасибо!
Команда RU-STAFF
Название аэропортаАлыкель
Название аэропорта (англ.)Alykel
Превышение574 ft. (175 m.)
Координаты69°19.02', 87°19.02'
Высота перехода1200m
Эшелон переходаQFE>744:FL60;744>QFE>717:FL70;717>QFE:FL80
Коды ответчика5401-5427
Зона ОрВДКрасноярск РПИ (UNKL)
Данные METARUOOO 071800Z 02003MPS 1800 1300SE R01/P2000U SN OVC019 M13/M14 Q0998 R01/491030 NOSIG RMK QFE734/0979
Проноз погоды (TAF)UOOO 071700Z 0718/0818 02006G13MPS 3200 -SN BLSN OVC016 TEMPO 0718/0808 1000 SN BLSN BKN005 OVC011 BECMG 0808/0811 16003G08MPS 6000 -SN TEMPO 0811/0815 08005G10MPS 3200 -SN DRSN BKN005 OVC011
NOTAMshow/hide NOTAM
AWOS   TABLE

Информация о ВПП

ВПП Длина ВПП (м.) Покрытие Курс ВПП Частота ILS
013430Бетон13109.5
193430Бетон193110.3

Диспетчерские позиции

Позывной Наименование органа УВД Частота
UOOO_TWRНорильск - Старт118.300
UOOO_APPНорильск - Круг120.400
UOOO_GNDНорильск - Руление121.700



Спутниковое изображение